sensor_id;sensor_type;location;lat;lon;timestamp;P1;durP1;ratioP1;P2;durP2;ratioP2
42124;SDS011;27787;44.594;11.046;2023-04-23T00:01:33;16.30;;;9.43;;
42124;SDS011;27787;44.594;11.046;2023-04-23T00:04:22;16.30;;;9.98;;
42124;SDS011;27787;44.594;11.046;2023-04-23T00:07:08;16.65;;;10.15;;
42124;SDS011;27787;44.594;11.046;2023-04-23T00:09:52;18.10;;;10.32;;
42124;SDS011;27787;44.594;11.046;2023-04-23T00:12:40;15.43;;;9.68;;
42124;SDS011;27787;44.594;11.046;2023-04-23T00:15:26;18.15;;;11.02;;
42124;SDS011;27787;44.594;11.046;2023-04-23T00:18:11;17.08;;;10.15;;
42124;SDS011;27787;44.594;11.046;2023-04-23T00:20:55;19.52;;;10.10;;
42124;SDS011;27787;44.594;11.046;2023-04-23T00:23:39;15.55;;;9.75;;
42124;SDS011;27787;44.594;11.046;2023-04-23T00:26:24;18.58;;;10.35;;
42124;SDS011;27787;44.594;11.046;2023-04-23T00:29:08;15.07;;;9.77;;
42124;SDS011;27787;44.594;11.046;2023-04-23T00:31:53;17.40;;;10.23;;
42124;SDS011;27787;44.594;11.046;2023-04-23T00:34:37;20.40;;;10.48;;
42124;SDS011;27787;44.594;11.046;2023-04-23T00:37:21;18.23;;;9.63;;
42124;SDS011;27787;44.594;11.046;2023-04-23T00:40:05;18.08;;;10.23;;
42124;SDS011;27787;44.594;11.046;2023-04-23T00:42:50;19.73;;;10.43;;
42124;SDS011;27787;44.594;11.046;2023-04-23T00:45:36;19.95;;;10.70;;
42124;SDS011;27787;44.594;11.046;2023-04-23T00:48:21;17.13;;;10.35;;
42124;SDS011;27787;44.594;11.046;2023-04-23T00:51:05;20.92;;;10.68;;
42124;SDS011;27787;44.594;11.046;2023-04-23T00:53:49;19.30;;;11.10;;
42124;SDS011;27787;44.594;11.046;2023-04-23T00:56:34;16.02;;;10.55;;
42124;SDS011;27787;44.594;11.046;2023-04-23T00:59:18;17.02;;;10.43;;
42124;SDS011;27787;44.594;11.046;2023-04-23T01:02:03;24.10;;;11.98;;
42124;SDS011;27787;44.594;11.046;2023-04-23T01:04:48;21.48;;;11.75;;
42124;SDS011;27787;44.594;11.046;2023-04-23T01:07:37;20.67;;;10.98;;
42124;SDS011;27787;44.594;11.046;2023-04-23T01:10:21;23.30;;;11.68;;
42124;SDS011;27787;44.594;11.046;2023-04-23T01:13:06;24.85;;;11.60;;
42124;SDS011;27787;44.594;11.046;2023-04-23T01:15:50;20.77;;;11.70;;
42124;SDS011;27787;44.594;11.046;2023-04-23T01:18:35;22.48;;;12.52;;
42124;SDS011;27787;44.594;11.046;2023-04-23T01:21:19;19.02;;;11.23;;
42124;SDS011;27787;44.594;11.046;2023-04-23T01:24:04;21.65;;;11.90;;
42124;SDS011;27787;44.594;11.046;2023-04-23T01:26:48;20.70;;;12.15;;
42124;SDS011;27787;44.594;11.046;2023-04-23T01:29:33;26.35;;;11.98;;
42124;SDS011;27787;44.594;11.046;2023-04-23T01:32:17;20.75;;;11.40;;
42124;SDS011;27787;44.594;11.046;2023-04-23T01:35:02;21.65;;;11.38;;
42124;SDS011;27787;44.594;11.046;2023-04-23T01:37:47;19.88;;;11.75;;
42124;SDS011;27787;44.594;11.046;2023-04-23T01:40:35;19.75;;;10.75;;
42124;SDS011;27787;44.594;11.046;2023-04-23T01:43:20;19.80;;;11.60;;
42124;SDS011;27787;44.594;11.046;2023-04-23T01:46:05;22.70;;;11.48;;
42124;SDS011;27787;44.594;11.046;2023-04-23T01:48:49;18.52;;;10.90;;
42124;SDS011;27787;44.594;11.046;2023-04-23T01:51:33;19.50;;;12.10;;
42124;SDS011;27787;44.594;11.046;2023-04-23T01:54:18;19.73;;;11.77;;
42124;SDS011;27787;44.594;11.046;2023-04-23T01:57:03;21.40;;;11.65;;
42124;SDS011;27787;44.594;11.046;2023-04-23T01:59:47;20.38;;;11.25;;
42124;SDS011;27787;44.594;11.046;2023-04-23T02:02:31;20.50;;;11.93;;
42124;SDS011;27787;44.594;11.046;2023-04-23T02:05:16;25.40;;;12.35;;
42124;SDS011;27787;44.594;11.046;2023-04-23T02:08:02;23.20;;;11.82;;
42124;SDS011;27787;44.594;11.046;2023-04-23T02:10:47;23.25;;;11.55;;
42124;SDS011;27787;44.594;11.046;2023-04-23T02:13:31;20.05;;;12.10;;
42124;SDS011;27787;44.594;11.046;2023-04-23T02:16:15;20.80;;;12.02;;
42124;SDS011;27787;44.594;11.046;2023-04-23T02:18:59;24.88;;;12.98;;
42124;SDS011;27787;44.594;11.046;2023-04-23T02:21:44;21.10;;;12.23;;
42124;SDS011;27787;44.594;11.046;2023-04-23T02:24:29;25.15;;;12.20;;
42124;SDS011;27787;44.594;11.046;2023-04-23T02:27:13;24.73;;;12.27;;
42124;SDS011;27787;44.594;11.046;2023-04-23T02:29:57;19.30;;;11.68;;
42124;SDS011;27787;44.594;11.046;2023-04-23T02:32:41;19.95;;;11.90;;
42124;SDS011;27787;44.594;11.046;2023-04-23T02:35:26;20.70;;;12.40;;
42124;SDS011;27787;44.594;11.046;2023-04-23T02:38:11;18.88;;;11.57;;
42124;SDS011;27787;44.594;11.046;2023-04-23T02:40:55;23.67;;;12.75;;
42124;SDS011;27787;44.594;11.046;2023-04-23T02:43:39;21.73;;;12.68;;
42124;SDS011;27787;44.594;11.046;2023-04-23T02:46:23;20.75;;;12.10;;
42124;SDS011;27787;44.594;11.046;2023-04-23T02:49:07;22.63;;;12.40;;
42124;SDS011;27787;44.594;11.046;2023-04-23T02:51:51;23.05;;;12.63;;
42124;SDS011;27787;44.594;11.046;2023-04-23T02:54:36;23.95;;;12.95;;
42124;SDS011;27787;44.594;11.046;2023-04-23T02:57:20;21.23;;;11.63;;
42124;SDS011;27787;44.594;11.046;2023-04-23T03:00:05;20.42;;;11.95;;
42124;SDS011;27787;44.594;11.046;2023-04-23T03:02:56;24.40;;;13.23;;
42124;SDS011;27787;44.594;11.046;2023-04-23T03:05:40;24.00;;;12.50;;
42124;SDS011;27787;44.594;11.046;2023-04-23T03:08:25;22.10;;;11.90;;
42124;SDS011;27787;44.594;11.046;2023-04-23T03:11:09;20.00;;;11.43;;
42124;SDS011;27787;44.594;11.046;2023-04-23T03:13:54;20.38;;;11.55;;
42124;SDS011;27787;44.594;11.046;2023-04-23T03:16:38;20.20;;;12.65;;
42124;SDS011;27787;44.594;11.046;2023-04-23T03:19:23;21.02;;;11.20;;
42124;SDS011;27787;44.594;11.046;2023-04-23T03:22:07;22.33;;;11.82;;
42124;SDS011;27787;44.594;11.046;2023-04-23T03:24:52;20.38;;;11.95;;
42124;SDS011;27787;44.594;11.046;2023-04-23T03:27:38;18.20;;;11.15;;
42124;SDS011;27787;44.594;11.046;2023-04-23T03:30:23;23.90;;;11.65;;
42124;SDS011;27787;44.594;11.046;2023-04-23T03:33:07;19.83;;;11.80;;
42124;SDS011;27787;44.594;11.046;2023-04-23T03:35:52;21.88;;;12.38;;
42124;SDS011;27787;44.594;11.046;2023-04-23T03:38:41;19.70;;;11.20;;
42124;SDS011;27787;44.594;11.046;2023-04-23T03:41:25;19.33;;;10.80;;
42124;SDS011;27787;44.594;11.046;2023-04-23T03:44:10;23.83;;;11.70;;
42124;SDS011;27787;44.594;11.046;2023-04-23T03:47:00;19.60;;;10.65;;
42124;SDS011;27787;44.594;11.046;2023-04-23T03:49:45;17.83;;;10.55;;
42124;SDS011;27787;44.594;11.046;2023-04-23T03:52:29;21.65;;;11.00;;
42124;SDS011;27787;44.594;11.046;2023-04-23T03:55:14;19.65;;;10.98;;
42124;SDS011;27787;44.594;11.046;2023-04-23T03:58:02;21.35;;;11.20;;
42124;SDS011;27787;44.594;11.046;2023-04-23T04:00:58;20.33;;;11.40;;
42124;SDS011;27787;44.594;11.046;2023-04-23T04:03:43;23.55;;;11.82;;
42124;SDS011;27787;44.594;11.046;2023-04-23T04:06:26;19.33;;;11.45;;
42124;SDS011;27787;44.594;11.046;2023-04-23T04:09:13;18.63;;;10.70;;
42124;SDS011;27787;44.594;11.046;2023-04-23T04:11:57;16.40;;;10.27;;
42124;SDS011;27787;44.594;11.046;2023-04-23T04:14:41;30.83;;;10.90;;
42124;SDS011;27787;44.594;11.046;2023-04-23T04:17:26;19.35;;;9.80;;
42124;SDS011;27787;44.594;11.046;2023-04-23T04:20:10;20.27;;;11.13;;
42124;SDS011;27787;44.594;11.046;2023-04-23T04:22:54;20.52;;;10.65;;
42124;SDS011;27787;44.594;11.046;2023-04-23T04:25:39;18.73;;;10.15;;
42124;SDS011;27787;44.594;11.046;2023-04-23T04:28:23;19.13;;;10.73;;
42124;SDS011;27787;44.594;11.046;2023-04-23T04:31:07;16.92;;;9.82;;
42124;SDS011;27787;44.594;11.046;2023-04-23T04:33:56;21.10;;;10.73;;
42124;SDS011;27787;44.594;11.046;2023-04-23T04:36:40;18.70;;;10.15;;
42124;SDS011;27787;44.594;11.046;2023-04-23T04:39:25;18.75;;;10.48;;
42124;SDS011;27787;44.594;11.046;2023-04-23T04:42:09;16.52;;;9.23;;
42124;SDS011;27787;44.594;11.046;2023-04-23T04:44:55;18.65;;;11.00;;
42124;SDS011;27787;44.594;11.046;2023-04-23T04:47:41;18.58;;;10.52;;
42124;SDS011;27787;44.594;11.046;2023-04-23T04:50:26;18.55;;;10.50;;
42124;SDS011;27787;44.594;11.046;2023-04-23T04:53:10;18.90;;;10.25;;
42124;SDS011;27787;44.594;11.046;2023-04-23T04:55:55;18.13;;;10.52;;
42124;SDS011;27787;44.594;11.046;2023-04-23T04:58:39;15.38;;;9.93;;
42124;SDS011;27787;44.594;11.046;2023-04-23T05:01:23;18.10;;;9.43;;
42124;SDS011;27787;44.594;11.046;2023-04-23T05:04:09;19.88;;;9.93;;
42124;SDS011;27787;44.594;11.046;2023-04-23T05:06:53;17.30;;;10.52;;
42124;SDS011;27787;44.594;11.046;2023-04-23T05:09:37;18.55;;;9.63;;
42124;SDS011;27787;44.594;11.046;2023-04-23T05:12:21;19.65;;;9.90;;
42124;SDS011;27787;44.594;11.046;2023-04-23T05:15:06;18.58;;;9.57;;
42124;SDS011;27787;44.594;11.046;2023-04-23T05:17:52;17.52;;;9.25;;
42124;SDS011;27787;44.594;11.046;2023-04-23T05:20:37;15.10;;;9.15;;
42124;SDS011;27787;44.594;11.046;2023-04-23T05:23:21;18.40;;;10.70;;
42124;SDS011;27787;44.594;11.046;2023-04-23T05:26:05;16.80;;;10.23;;
42124;SDS011;27787;44.594;11.046;2023-04-23T05:28:50;17.23;;;10.07;;
42124;SDS011;27787;44.594;11.046;2023-04-23T05:31:34;18.80;;;10.65;;
42124;SDS011;27787;44.594;11.046;2023-04-23T05:34:18;17.45;;;10.35;;
42124;SDS011;27787;44.594;11.046;2023-04-23T05:37:02;21.17;;;11.23;;
42124;SDS011;27787;44.594;11.046;2023-04-23T05:39:46;18.92;;;11.00;;
42124;SDS011;27787;44.594;11.046;2023-04-23T05:42:30;18.70;;;11.02;;
42124;SDS011;27787;44.594;11.046;2023-04-23T05:45:15;21.48;;;12.27;;
42124;SDS011;27787;44.594;11.046;2023-04-23T05:47:59;23.58;;;13.05;;
42124;SDS011;27787;44.594;11.046;2023-04-23T05:50:43;21.73;;;12.43;;
42124;SDS011;27787;44.594;11.046;2023-04-23T05:53:27;19.08;;;11.35;;
42124;SDS011;27787;44.594;11.046;2023-04-23T05:56:12;23.60;;;11.77;;
42124;SDS011;27787;44.594;11.046;2023-04-23T05:58:56;22.60;;;12.85;;
42124;SDS011;27787;44.594;11.046;2023-04-23T06:01:40;34.05;;;17.73;;
42124;SDS011;27787;44.594;11.046;2023-04-23T06:04:24;30.98;;;16.98;;
42124;SDS011;27787;44.594;11.046;2023-04-23T06:07:09;36.80;;;19.77;;
42124;SDS011;27787;44.594;11.046;2023-04-23T06:09:55;42.15;;;22.48;;
42124;SDS011;27787;44.594;11.046;2023-04-23T06:12:39;42.97;;;23.70;;
42124;SDS011;27787;44.594;11.046;2023-04-23T06:15:24;41.53;;;25.40;;
42124;SDS011;27787;44.594;11.046;2023-04-23T06:18:10;50.35;;;26.75;;
42124;SDS011;27787;44.594;11.046;2023-04-23T06:20:53;44.05;;;26.23;;
42124;SDS011;27787;44.594;11.046;2023-04-23T06:23:39;38.80;;;22.63;;
42124;SDS011;27787;44.594;11.046;2023-04-23T06:26:24;36.47;;;20.15;;
42124;SDS011;27787;44.594;11.046;2023-04-23T06:29:11;31.05;;;18.98;;
42124;SDS011;27787;44.594;11.046;2023-04-23T06:32:16;31.73;;;19.35;;
42124;SDS011;27787;44.594;11.046;2023-04-23T06:35:00;35.30;;;18.92;;
42124;SDS011;27787;44.594;11.046;2023-04-23T06:37:44;33.67;;;18.35;;
42124;SDS011;27787;44.594;11.046;2023-04-23T06:40:28;32.35;;;17.45;;
42124;SDS011;27787;44.594;11.046;2023-04-23T06:43:13;32.47;;;16.10;;
42124;SDS011;27787;44.594;11.046;2023-04-23T06:46:29;27.80;;;15.85;;
42124;SDS011;27787;44.594;11.046;2023-04-23T06:49:13;25.77;;;14.00;;
42124;SDS011;27787;44.594;11.046;2023-04-23T06:51:57;25.50;;;15.13;;
42124;SDS011;27787;44.594;11.046;2023-04-23T06:54:42;27.75;;;14.73;;
42124;SDS011;27787;44.594;11.046;2023-04-23T06:57:26;29.27;;;15.25;;
42124;SDS011;27787;44.594;11.046;2023-04-23T07:00:11;25.40;;;14.17;;
42124;SDS011;27787;44.594;11.046;2023-04-23T07:02:59;25.58;;;14.23;;
42124;SDS011;27787;44.594;11.046;2023-04-23T07:05:43;28.88;;;15.60;;
42124;SDS011;27787;44.594;11.046;2023-04-23T07:08:28;28.40;;;17.52;;
42124;SDS011;27787;44.594;11.046;2023-04-23T07:11:12;28.80;;;16.70;;
42124;SDS011;27787;44.594;11.046;2023-04-23T07:13:56;33.63;;;17.20;;
42124;SDS011;27787;44.594;11.046;2023-04-23T07:16:41;33.58;;;18.55;;
42124;SDS011;27787;44.594;11.046;2023-04-23T07:19:24;34.13;;;18.50;;
42124;SDS011;27787;44.594;11.046;2023-04-23T07:22:09;29.73;;;15.68;;
42124;SDS011;27787;44.594;11.046;2023-04-23T07:24:54;25.95;;;15.20;;
42124;SDS011;27787;44.594;11.046;2023-04-23T07:27:38;26.10;;;15.15;;
42124;SDS011;27787;44.594;11.046;2023-04-23T07:30:22;30.58;;;14.40;;
42124;SDS011;27787;44.594;11.046;2023-04-23T07:33:08;22.83;;;14.23;;
42124;SDS011;27787;44.594;11.046;2023-04-23T07:35:52;27.83;;;14.60;;
42124;SDS011;27787;44.594;11.046;2023-04-23T07:38:36;32.45;;;13.63;;
42124;SDS011;27787;44.594;11.046;2023-04-23T07:41:21;23.23;;;13.68;;
42124;SDS011;27787;44.594;11.046;2023-04-23T07:44:05;20.40;;;12.73;;
42124;SDS011;27787;44.594;11.046;2023-04-23T07:46:49;26.27;;;13.40;;
42124;SDS011;27787;44.594;11.046;2023-04-23T07:49:33;25.40;;;13.48;;
42124;SDS011;27787;44.594;11.046;2023-04-23T07:52:18;21.02;;;12.40;;
42124;SDS011;27787;44.594;11.046;2023-04-23T07:55:02;23.45;;;12.55;;
42124;SDS011;27787;44.594;11.046;2023-04-23T07:57:47;21.85;;;12.40;;
42124;SDS011;27787;44.594;11.046;2023-04-23T08:00:32;21.45;;;11.90;;
42124;SDS011;27787;44.594;11.046;2023-04-23T08:03:16;25.48;;;12.93;;
42124;SDS011;27787;44.594;11.046;2023-04-23T08:06:01;26.67;;;14.88;;
42124;SDS011;27787;44.594;11.046;2023-04-23T08:08:47;26.25;;;14.77;;
42124;SDS011;27787;44.594;11.046;2023-04-23T08:11:32;26.77;;;14.65;;
42124;SDS011;27787;44.594;11.046;2023-04-23T08:14:17;30.20;;;13.90;;
42124;SDS011;27787;44.594;11.046;2023-04-23T08:17:01;26.95;;;15.82;;
42124;SDS011;27787;44.594;11.046;2023-04-23T08:19:46;29.02;;;16.38;;
42124;SDS011;27787;44.594;11.046;2023-04-23T08:22:30;27.60;;;15.55;;
42124;SDS011;27787;44.594;11.046;2023-04-23T08:25:15;27.73;;;14.95;;
42124;SDS011;27787;44.594;11.046;2023-04-23T08:27:59;27.30;;;14.73;;
42124;SDS011;27787;44.594;11.046;2023-04-23T08:30:44;23.45;;;13.93;;
42124;SDS011;27787;44.594;11.046;2023-04-23T08:33:29;30.88;;;15.88;;
42124;SDS011;27787;44.594;11.046;2023-04-23T08:36:16;30.17;;;15.38;;
42124;SDS011;27787;44.594;11.046;2023-04-23T08:39:00;27.73;;;15.02;;
42124;SDS011;27787;44.594;11.046;2023-04-23T08:41:45;27.95;;;15.70;;
42124;SDS011;27787;44.594;11.046;2023-04-23T08:44:35;24.20;;;13.00;;
42124;SDS011;27787;44.594;11.046;2023-04-23T08:47:21;25.30;;;13.60;;
42124;SDS011;27787;44.594;11.046;2023-04-23T08:50:12;27.80;;;15.77;;
42124;SDS011;27787;44.594;11.046;2023-04-23T08:53:00;26.92;;;14.35;;
42124;SDS011;27787;44.594;11.046;2023-04-23T08:55:47;25.52;;;14.45;;
42124;SDS011;27787;44.594;11.046;2023-04-23T08:58:33;25.35;;;14.20;;
42124;SDS011;27787;44.594;11.046;2023-04-23T09:01:18;24.58;;;13.68;;
42124;SDS011;27787;44.594;11.046;2023-04-23T09:04:03;24.77;;;13.57;;
42124;SDS011;27787;44.594;11.046;2023-04-23T09:06:47;25.23;;;14.25;;
42124;SDS011;27787;44.594;11.046;2023-04-23T09:09:32;22.92;;;13.13;;
42124;SDS011;27787;44.594;11.046;2023-04-23T09:12:18;25.70;;;13.57;;
42124;SDS011;27787;44.594;11.046;2023-04-23T09:15:04;25.75;;;14.85;;
42124;SDS011;27787;44.594;11.046;2023-04-23T09:17:53;24.02;;;14.00;;
42124;SDS011;27787;44.594;11.046;2023-04-23T09:20:38;20.70;;;12.85;;
42124;SDS011;27787;44.594;11.046;2023-04-23T09:23:22;23.48;;;13.73;;
42124;SDS011;27787;44.594;11.046;2023-04-23T09:26:06;21.52;;;12.77;;
42124;SDS011;27787;44.594;11.046;2023-04-23T09:28:51;22.65;;;13.05;;
42124;SDS011;27787;44.594;11.046;2023-04-23T09:31:35;25.23;;;14.40;;
42124;SDS011;27787;44.594;11.046;2023-04-23T09:34:20;25.15;;;14.52;;
42124;SDS011;27787;44.594;11.046;2023-04-23T09:37:05;24.17;;;14.20;;
42124;SDS011;27787;44.594;11.046;2023-04-23T09:39:53;23.30;;;13.85;;
42124;SDS011;27787;44.594;11.046;2023-04-23T09:42:45;22.55;;;13.23;;
42124;SDS011;27787;44.594;11.046;2023-04-23T09:45:32;22.05;;;13.10;;
42124;SDS011;27787;44.594;11.046;2023-04-23T09:48:18;23.33;;;12.02;;
42124;SDS011;27787;44.594;11.046;2023-04-23T09:51:04;23.08;;;13.00;;
42124;SDS011;27787;44.594;11.046;2023-04-23T09:53:48;27.83;;;15.88;;
42124;SDS011;27787;44.594;11.046;2023-04-23T09:56:33;23.83;;;13.93;;
42124;SDS011;27787;44.594;11.046;2023-04-23T10:02:09;25.48;;;14.90;;
42124;SDS011;27787;44.594;11.046;2023-04-23T10:04:54;19.88;;;11.52;;
42124;SDS011;27787;44.594;11.046;2023-04-23T10:07:38;27.80;;;13.05;;
42124;SDS011;27787;44.594;11.046;2023-04-23T10:10:23;25.30;;;13.10;;
42124;SDS011;27787;44.594;11.046;2023-04-23T10:13:08;23.98;;;12.10;;
42124;SDS011;27787;44.594;11.046;2023-04-23T10:15:53;20.27;;;11.63;;
42124;SDS011;27787;44.594;11.046;2023-04-23T10:18:39;19.05;;;12.18;;
42124;SDS011;27787;44.594;11.046;2023-04-23T10:21:24;21.23;;;11.82;;
42124;SDS011;27787;44.594;11.046;2023-04-23T10:24:12;18.33;;;10.75;;
42124;SDS011;27787;44.594;11.046;2023-04-23T10:26:57;19.50;;;11.37;;
42124;SDS011;27787;44.594;11.046;2023-04-23T10:29:43;17.08;;;10.68;;
42124;SDS011;27787;44.594;11.046;2023-04-23T10:32:28;17.70;;;10.23;;
42124;SDS011;27787;44.594;11.046;2023-04-23T10:35:15;15.80;;;10.32;;
42124;SDS011;27787;44.594;11.046;2023-04-23T10:37:59;19.35;;;10.82;;
42124;SDS011;27787;44.594;11.046;2023-04-23T10:40:45;18.90;;;10.50;;
42124;SDS011;27787;44.594;11.046;2023-04-23T10:43:32;21.52;;;11.10;;
42124;SDS011;27787;44.594;11.046;2023-04-23T10:46:28;16.38;;;10.70;;
42124;SDS011;27787;44.594;11.046;2023-04-23T10:49:14;15.93;;;9.50;;
42124;SDS011;27787;44.594;11.046;2023-04-23T10:54:57;16.90;;;10.00;;
42124;SDS011;27787;44.594;11.046;2023-04-23T11:06:19;18.40;;;10.75;;
42124;SDS011;27787;44.594;11.046;2023-04-23T11:15:14;16.27;;;9.27;;
42124;SDS011;27787;44.594;11.046;2023-04-23T11:18:01;21.05;;;9.13;;
42124;SDS011;27787;44.594;11.046;2023-04-23T11:20:46;20.77;;;9.83;;
42124;SDS011;27787;44.594;11.046;2023-04-23T11:23:32;14.20;;;7.78;;
42124;SDS011;27787;44.594;11.046;2023-04-23T11:26:17;13.93;;;7.32;;
42124;SDS011;27787;44.594;11.046;2023-04-23T11:29:02;11.60;;;6.07;;
42124;SDS011;27787;44.594;11.046;2023-04-23T11:34:31;14.63;;;6.68;;
42124;SDS011;27787;44.594;11.046;2023-04-23T11:37:16;15.05;;;7.65;;
42124;SDS011;27787;44.594;11.046;2023-04-23T11:42:50;15.50;;;8.82;;
42124;SDS011;27787;44.594;11.046;2023-04-23T11:45:37;14.68;;;9.00;;
42124;SDS011;27787;44.594;11.046;2023-04-23T11:48:22;15.48;;;9.10;;
42124;SDS011;27787;44.594;11.046;2023-04-23T11:51:06;13.35;;;7.88;;
42124;SDS011;27787;44.594;11.046;2023-04-23T11:53:51;12.48;;;6.57;;
42124;SDS011;27787;44.594;11.046;2023-04-23T11:56:36;10.55;;;5.97;;
42124;SDS011;27787;44.594;11.046;2023-04-23T11:59:21;12.43;;;6.80;;
42124;SDS011;27787;44.594;11.046;2023-04-23T12:02:05;10.63;;;5.25;;
42124;SDS011;27787;44.594;11.046;2023-04-23T12:04:49;12.43;;;6.68;;
42124;SDS011;27787;44.594;11.046;2023-04-23T12:07:34;11.70;;;6.60;;
42124;SDS011;27787;44.594;11.046;2023-04-23T12:10:19;11.20;;;5.30;;
42124;SDS011;27787;44.594;11.046;2023-04-23T12:13:04;8.60;;;4.93;;
42124;SDS011;27787;44.594;11.046;2023-04-23T12:15:53;10.87;;;4.83;;
42124;SDS011;27787;44.594;11.046;2023-04-23T12:18:41;6.55;;;4.50;;
42124;SDS011;27787;44.594;11.046;2023-04-23T12:21:26;11.40;;;5.25;;
42124;SDS011;27787;44.594;11.046;2023-04-23T12:24:13;8.80;;;5.03;;
42124;SDS011;27787;44.594;11.046;2023-04-23T12:26:58;9.23;;;4.70;;
42124;SDS011;27787;44.594;11.046;2023-04-23T12:29:45;11.05;;;5.28;;
42124;SDS011;27787;44.594;11.046;2023-04-23T12:32:31;8.07;;;5.05;;
42124;SDS011;27787;44.594;11.046;2023-04-23T12:35:17;8.57;;;5.03;;
42124;SDS011;27787;44.594;11.046;2023-04-23T12:38:03;6.38;;;4.18;;
42124;SDS011;27787;44.594;11.046;2023-04-23T12:40:48;6.45;;;4.07;;
42124;SDS011;27787;44.594;11.046;2023-04-23T12:43:31;6.75;;;4.00;;
42124;SDS011;27787;44.594;11.046;2023-04-23T12:46:16;7.38;;;4.30;;
42124;SDS011;27787;44.594;11.046;2023-04-23T12:49:00;6.70;;;4.05;;
42124;SDS011;27787;44.594;11.046;2023-04-23T12:51:44;7.80;;;4.30;;
42124;SDS011;27787;44.594;11.046;2023-04-23T12:54:30;6.93;;;4.00;;
42124;SDS011;27787;44.594;11.046;2023-04-23T12:57:15;5.97;;;3.75;;
42124;SDS011;27787;44.594;11.046;2023-04-23T13:00:04;7.35;;;4.10;;
42124;SDS011;27787;44.594;11.046;2023-04-23T13:02:51;5.20;;;3.55;;
42124;SDS011;27787;44.594;11.046;2023-04-23T13:05:35;5.93;;;3.60;;
42124;SDS011;27787;44.594;11.046;2023-04-23T13:08:19;9.65;;;3.88;;
42124;SDS011;27787;44.594;11.046;2023-04-23T13:11:03;5.53;;;3.40;;
42124;SDS011;27787;44.594;11.046;2023-04-23T13:13:48;8.27;;;3.80;;
42124;SDS011;27787;44.594;11.046;2023-04-23T13:16:32;7.35;;;3.28;;
42124;SDS011;27787;44.594;11.046;2023-04-23T13:19:17;5.87;;;3.27;;
42124;SDS011;27787;44.594;11.046;2023-04-23T13:22:01;4.45;;;3.20;;
42124;SDS011;27787;44.594;11.046;2023-04-23T13:24:47;5.50;;;3.30;;
42124;SDS011;27787;44.594;11.046;2023-04-23T13:27:31;5.50;;;3.50;;
42124;SDS011;27787;44.594;11.046;2023-04-23T13:30:15;6.23;;;3.23;;
42124;SDS011;27787;44.594;11.046;2023-04-23T13:33:00;5.68;;;3.08;;
42124;SDS011;27787;44.594;11.046;2023-04-23T13:35:44;4.82;;;3.17;;
42124;SDS011;27787;44.594;11.046;2023-04-23T13:38:29;4.53;;;2.78;;
42124;SDS011;27787;44.594;11.046;2023-04-23T13:41:13;5.82;;;2.83;;
42124;SDS011;27787;44.594;11.046;2023-04-23T13:43:58;4.15;;;2.80;;
42124;SDS011;27787;44.594;11.046;2023-04-23T13:46:42;4.85;;;3.13;;
42124;SDS011;27787;44.594;11.046;2023-04-23T13:49:27;3.87;;;2.67;;
42124;SDS011;27787;44.594;11.046;2023-04-23T13:52:11;4.40;;;2.85;;
42124;SDS011;27787;44.594;11.046;2023-04-23T13:54:55;6.82;;;3.22;;
42124;SDS011;27787;44.594;11.046;2023-04-23T13:57:39;5.75;;;3.22;;
42124;SDS011;27787;44.594;11.046;2023-04-23T14:00:25;8.55;;;3.22;;
42124;SDS011;27787;44.594;11.046;2023-04-23T14:03:11;5.90;;;3.50;;
42124;SDS011;27787;44.594;11.046;2023-04-23T14:05:55;5.13;;;3.17;;
42124;SDS011;27787;44.594;11.046;2023-04-23T14:08:41;6.03;;;3.45;;
42124;SDS011;27787;44.594;11.046;2023-04-23T14:11:25;4.47;;;2.95;;
42124;SDS011;27787;44.594;11.046;2023-04-23T14:14:10;5.40;;;2.83;;
42124;SDS011;27787;44.594;11.046;2023-04-23T14:16:54;4.75;;;2.75;;
42124;SDS011;27787;44.594;11.046;2023-04-23T14:19:38;4.80;;;3.10;;
42124;SDS011;27787;44.594;11.046;2023-04-23T14:22:22;6.10;;;3.25;;
42124;SDS011;27787;44.594;11.046;2023-04-23T14:25:13;6.00;;;3.15;;
42124;SDS011;27787;44.594;11.046;2023-04-23T14:28:01;7.05;;;3.47;;
42124;SDS011;27787;44.594;11.046;2023-04-23T14:30:59;7.03;;;3.33;;
42124;SDS011;27787;44.594;11.046;2023-04-23T14:33:44;4.63;;;3.03;;
42124;SDS011;27787;44.594;11.046;2023-04-23T14:36:28;4.45;;;2.80;;
42124;SDS011;27787;44.594;11.046;2023-04-23T14:39:16;5.07;;;3.13;;
42124;SDS011;27787;44.594;11.046;2023-04-23T14:42:00;4.65;;;2.90;;
42124;SDS011;27787;44.594;11.046;2023-04-23T14:44:45;4.47;;;2.83;;
42124;SDS011;27787;44.594;11.046;2023-04-23T14:47:29;7.75;;;2.85;;
42124;SDS011;27787;44.594;11.046;2023-04-23T14:50:14;5.03;;;3.20;;
42124;SDS011;27787;44.594;11.046;2023-04-23T14:52:59;4.70;;;2.58;;
42124;SDS011;27787;44.594;11.046;2023-04-23T14:55:46;4.25;;;2.78;;
42124;SDS011;27787;44.594;11.046;2023-04-23T14:58:31;3.95;;;2.72;;
42124;SDS011;27787;44.594;11.046;2023-04-23T15:01:15;4.47;;;2.83;;
42124;SDS011;27787;44.594;11.046;2023-04-23T15:04:00;4.22;;;2.85;;
42124;SDS011;27787;44.594;11.046;2023-04-23T15:06:43;5.47;;;3.13;;
42124;SDS011;27787;44.594;11.046;2023-04-23T15:09:28;4.63;;;2.88;;
42124;SDS011;27787;44.594;11.046;2023-04-23T15:12:33;5.65;;;3.08;;
42124;SDS011;27787;44.594;11.046;2023-04-23T15:18:20;5.03;;;3.10;;
42124;SDS011;27787;44.594;11.046;2023-04-23T15:21:04;5.93;;;2.80;;
42124;SDS011;27787;44.594;11.046;2023-04-23T15:23:48;4.75;;;2.75;;
42124;SDS011;27787;44.594;11.046;2023-04-23T15:26:33;7.37;;;3.30;;
42124;SDS011;27787;44.594;11.046;2023-04-23T15:29:17;4.78;;;3.38;;
42124;SDS011;27787;44.594;11.046;2023-04-23T15:32:02;3.67;;;2.80;;
42124;SDS011;27787;44.594;11.046;2023-04-23T15:34:46;8.35;;;3.35;;
42124;SDS011;27787;44.594;11.046;2023-04-23T15:37:29;5.30;;;3.20;;
42124;SDS011;27787;44.594;11.046;2023-04-23T15:40:14;8.60;;;3.38;;
42124;SDS011;27787;44.594;11.046;2023-04-23T15:42:58;3.50;;;2.60;;
42124;SDS011;27787;44.594;11.046;2023-04-23T15:45:42;6.35;;;3.10;;
42124;SDS011;27787;44.594;11.046;2023-04-23T15:48:30;9.30;;;4.30;;
42124;SDS011;27787;44.594;11.046;2023-04-23T15:51:14;7.43;;;4.82;;
42124;SDS011;27787;44.594;11.046;2023-04-23T15:53:58;11.20;;;5.33;;
42124;SDS011;27787;44.594;11.046;2023-04-23T15:56:44;5.05;;;3.08;;
42124;SDS011;27787;44.594;11.046;2023-04-23T15:59:28;6.68;;;3.53;;
42124;SDS011;27787;44.594;11.046;2023-04-23T16:02:13;8.10;;;3.45;;
42124;SDS011;27787;44.594;11.046;2023-04-23T16:04:57;6.43;;;4.15;;
42124;SDS011;27787;44.594;11.046;2023-04-23T16:07:41;12.27;;;4.60;;
42124;SDS011;27787;44.594;11.046;2023-04-23T16:10:27;7.38;;;4.03;;
42124;SDS011;27787;44.594;11.046;2023-04-23T16:13:13;13.77;;;3.80;;
42124;SDS011;27787;44.594;11.046;2023-04-23T16:15:58;5.40;;;3.67;;
42124;SDS011;27787;44.594;11.046;2023-04-23T16:18:42;8.03;;;3.60;;
42124;SDS011;27787;44.594;11.046;2023-04-23T16:21:27;9.70;;;3.95;;
42124;SDS011;27787;44.594;11.046;2023-04-23T16:24:11;7.18;;;2.90;;
42124;SDS011;27787;44.594;11.046;2023-04-23T16:26:55;8.90;;;3.38;;
42124;SDS011;27787;44.594;11.046;2023-04-23T16:29:39;6.33;;;2.97;;